createdAt,value
2022-08-22T00:02:57.282Z,0.00
2022-08-22T00:03:02.382Z,0.00
2022-08-22T00:03:22.744Z,0.00
2022-08-22T00:03:27.987Z,0.00
2022-08-22T00:04:27.827Z,0.00
2022-08-22T00:05:27.815Z,0.00
2022-08-22T00:06:27.759Z,0.00
2022-08-22T00:07:27.831Z,0.00
2022-08-22T00:08:27.927Z,0.00
2022-08-22T00:09:27.772Z,0.00
2022-08-22T00:10:27.846Z,0.00
2022-08-22T00:11:27.953Z,0.00
2022-08-22T00:12:27.911Z,0.00
2022-08-22T00:13:28.011Z,0.00
2022-08-22T00:14:28.147Z,0.00
2022-08-22T00:15:42.596Z,0.00
2022-08-22T00:16:27.904Z,0.00
2022-08-22T00:17:27.691Z,0.00
2022-08-22T00:18:27.635Z,0.00
2022-08-22T00:19:27.785Z,0.00
2022-08-22T00:20:28.298Z,0.00
2022-08-22T00:21:27.967Z,0.00
2022-08-22T00:22:27.824Z,0.00
2022-08-22T00:23:27.826Z,0.00
2022-08-22T00:24:28.067Z,0.00
2022-08-22T00:25:27.600Z,0.00
2022-08-22T00:26:27.819Z,0.00
2022-08-22T00:27:27.549Z,0.00
2022-08-22T00:28:27.683Z,0.00
2022-08-22T00:29:27.567Z,0.00
2022-08-22T00:30:27.788Z,0.00
2022-08-22T00:31:27.499Z,0.00
2022-08-22T00:32:28.285Z,0.00
2022-08-22T00:33:28.153Z,0.00
2022-08-22T00:34:27.729Z,0.00
2022-08-22T00:35:27.803Z,0.00
2022-08-22T00:36:27.930Z,0.00
2022-08-22T00:37:27.893Z,0.00
2022-08-22T00:38:27.596Z,0.00
2022-08-22T00:39:27.403Z,0.00
2022-08-22T00:40:27.461Z,0.00
2022-08-22T00:41:27.449Z,0.00
2022-08-22T00:42:29.491Z,0.00
2022-08-22T00:43:27.450Z,0.00
2022-08-22T00:44:28.008Z,0.00
2022-08-22T00:45:27.666Z,0.00
2022-08-22T00:46:27.349Z,0.00
2022-08-22T00:47:27.737Z,0.00
2022-08-22T00:48:27.493Z,0.00
2022-08-22T00:49:29.660Z,0.00
2022-08-22T00:50:27.408Z,0.00
2022-08-22T00:51:27.331Z,0.00
2022-08-22T00:52:27.470Z,0.00
2022-08-22T00:53:27.406Z,0.00
2022-08-22T00:54:27.473Z,0.00
2022-08-22T00:55:28.000Z,0.00
2022-08-22T00:56:27.357Z,0.00
2022-08-22T00:57:27.490Z,0.00
2022-08-22T00:58:27.394Z,0.00
2022-08-22T00:59:27.198Z,0.00
2022-08-22T01:00:27.231Z,0.00
2022-08-22T01:01:27.466Z,0.00
2022-08-22T01:02:27.495Z,0.00
2022-08-22T01:03:27.392Z,0.00
2022-08-22T01:04:27.273Z,0.00
2022-08-22T01:05:27.216Z,0.00
2022-08-22T01:06:27.182Z,0.00
2022-08-22T01:07:30.539Z,0.00
2022-08-22T01:08:27.468Z,0.00
2022-08-22T01:09:27.358Z,0.00
2022-08-22T01:10:27.416Z,0.00
2022-08-22T01:11:27.720Z,0.00
2022-08-22T01:12:27.401Z,0.00
2022-08-22T01:13:27.163Z,0.00
2022-08-22T01:14:34.931Z,0.00
2022-08-22T01:15:27.309Z,0.00
2022-08-22T01:16:27.159Z,0.00
2022-08-22T01:17:27.337Z,0.00
2022-08-22T01:18:27.138Z,0.00
2022-08-22T01:19:27.163Z,0.00
2022-08-22T01:20:27.174Z,0.00
2022-08-22T01:21:27.165Z,0.00
2022-08-22T01:22:27.005Z,0.00
2022-08-22T01:23:27.051Z,0.00
2022-08-22T01:24:27.166Z,0.00
2022-08-22T01:25:27.217Z,0.00
2022-08-22T01:26:28.545Z,0.00
2022-08-22T01:27:27.002Z,0.00
2022-08-22T01:28:26.936Z,0.00
2022-08-22T01:29:28.437Z,0.00
2022-08-22T01:30:27.107Z,0.00
2022-08-22T01:31:27.004Z,0.00
2022-08-22T01:32:27.075Z,0.00
2022-08-22T01:33:26.993Z,0.00
2022-08-22T01:34:26.881Z,0.00
2022-08-22T01:35:26.870Z,0.00
2022-08-22T01:36:26.847Z,0.00
2022-08-22T01:37:26.993Z,0.00
2022-08-22T01:38:26.835Z,0.00
2022-08-22T01:39:26.751Z,0.00
2022-08-22T01:40:27.190Z,0.00
2022-08-22T01:41:26.807Z,0.00
2022-08-22T01:42:26.937Z,0.00
2022-08-22T01:43:51.330Z,0.00
2022-08-22T01:44:26.749Z,0.00
2022-08-22T01:45:27.182Z,0.00
2022-08-22T01:46:26.997Z,0.00
2022-08-22T01:47:26.813Z,0.00
2022-08-22T01:48:26.712Z,0.00
2022-08-22T01:49:26.775Z,0.00
2022-08-22T01:50:26.755Z,0.00
2022-08-22T01:51:26.683Z,0.00
2022-08-22T01:52:26.590Z,0.00
2022-08-22T01:53:27.117Z,0.00
2022-08-22T01:54:26.707Z,0.00
2022-08-22T01:55:26.596Z,0.00
2022-08-22T01:56:26.695Z,0.00
2022-08-22T01:57:26.633Z,0.00
2022-08-22T01:58:26.591Z,0.00
2022-08-22T01:59:27.602Z,0.00
2022-08-22T02:00:35.347Z,0.00
2022-08-22T02:01:26.595Z,0.00
2022-08-22T02:02:26.582Z,0.00
2022-08-22T02:03:26.620Z,0.00
2022-08-22T02:04:26.628Z,0.00
2022-08-22T02:05:26.659Z,0.00
2022-08-22T02:06:26.585Z,0.00
2022-08-22T02:07:31.775Z,0.00
2022-08-22T02:08:26.646Z,0.00
2022-08-22T02:09:26.509Z,0.00
2022-08-22T02:10:26.405Z,0.00
2022-08-22T02:11:26.477Z,0.00
2022-08-22T02:12:26.592Z,0.00
2022-08-22T02:13:26.691Z,0.00
2022-08-22T02:14:26.342Z,0.00
2022-08-22T02:15:26.520Z,0.00
2022-08-22T02:16:26.350Z,0.00
2022-08-22T02:17:26.414Z,0.00
2022-08-22T02:18:26.501Z,0.00
2022-08-22T02:19:26.591Z,0.00
2022-08-22T02:20:26.562Z,0.00
2022-08-22T02:21:26.634Z,0.00
2022-08-22T02:22:26.515Z,0.00
2022-08-22T02:23:26.393Z,0.00
2022-08-22T02:24:26.629Z,0.00
2022-08-22T02:25:26.509Z,0.00
2022-08-22T02:26:27.109Z,0.00
2022-08-22T02:27:31.372Z,0.00
2022-08-22T02:28:26.412Z,0.00
2022-08-22T02:29:26.374Z,0.00
2022-08-22T02:30:26.303Z,0.00
2022-08-22T02:31:26.402Z,0.00
2022-08-22T02:32:26.514Z,0.00
2022-08-22T02:33:26.419Z,0.00
2022-08-22T02:34:26.467Z,0.00
2022-08-22T02:35:26.142Z,0.00
2022-08-22T02:36:26.088Z,0.00
2022-08-22T02:37:26.174Z,0.00
2022-08-22T02:38:26.208Z,0.00
2022-08-22T02:39:26.671Z,0.00
2022-08-22T02:40:26.205Z,0.00
2022-08-22T02:41:26.427Z,0.00
2022-08-22T02:42:26.232Z,0.00
2022-08-22T02:43:26.184Z,0.00
2022-08-22T02:44:26.063Z,0.00
2022-08-22T02:45:26.103Z,0.00
2022-08-22T02:46:26.124Z,0.00
2022-08-22T02:47:26.150Z,0.00
2022-08-22T02:48:26.317Z,0.00
2022-08-22T02:49:27.324Z,0.00
2022-08-22T02:50:26.287Z,0.00
2022-08-22T02:51:26.069Z,0.00
2022-08-22T02:52:26.218Z,0.00
2022-08-22T02:53:26.189Z,0.00
2022-08-22T02:54:25.965Z,0.00
2022-08-22T02:55:26.150Z,0.00
2022-08-22T02:56:26.098Z,0.00
2022-08-22T02:57:26.282Z,0.00
2022-08-22T02:58:25.967Z,0.00
2022-08-22T02:59:25.941Z,0.00
2022-08-22T03:00:31.255Z,0.00
2022-08-22T03:01:25.961Z,0.00
2022-08-22T03:02:26.023Z,0.00
2022-08-22T03:03:26.067Z,0.00
2022-08-22T03:04:25.871Z,0.00
2022-08-22T03:05:26.185Z,0.00
2022-08-22T03:06:26.076Z,0.00
2022-08-22T03:07:25.996Z,0.00
2022-08-22T03:08:25.945Z,0.00
2022-08-22T03:09:25.994Z,0.00
2022-08-22T03:10:26.223Z,0.00
2022-08-22T03:11:25.904Z,0.00
2022-08-22T03:12:25.752Z,0.00
2022-08-22T03:13:25.784Z,0.00
2022-08-22T03:14:25.922Z,0.00
2022-08-22T03:15:25.870Z,0.00
2022-08-22T03:16:26.049Z,0.00
2022-08-22T03:17:25.768Z,0.00
2022-08-22T03:18:25.762Z,0.00
2022-08-22T03:19:25.860Z,0.00
2022-08-22T03:20:25.925Z,0.00
2022-08-22T03:21:25.769Z,0.00
2022-08-22T03:22:25.662Z,0.00
2022-08-22T03:23:25.654Z,0.00
2022-08-22T03:24:25.662Z,0.00
2022-08-22T03:25:25.742Z,0.00
2022-08-22T03:26:25.899Z,0.00
2022-08-22T03:27:32.931Z,0.00
2022-08-22T03:28:25.630Z,0.00
2022-08-22T03:29:25.878Z,0.00
2022-08-22T03:30:25.781Z,0.00
2022-08-22T03:31:25.606Z,0.00
2022-08-22T03:32:25.784Z,0.00
2022-08-22T03:33:25.547Z,0.00
2022-08-22T03:34:25.730Z,0.00
2022-08-22T03:35:25.666Z,0.00
2022-08-22T03:36:25.549Z,0.00
2022-08-22T03:37:26.227Z,0.00
2022-08-22T03:38:25.684Z,0.00
2022-08-22T03:39:25.587Z,0.00
2022-08-22T03:40:27.826Z,0.00
2022-08-22T03:41:25.475Z,0.00
2022-08-22T03:42:25.735Z,0.00
2022-08-22T03:43:25.456Z,0.00
2022-08-22T03:44:25.451Z,0.00
2022-08-22T03:45:25.481Z,0.00
2022-08-22T03:46:25.533Z,0.00
2022-08-22T03:47:25.385Z,0.00
2022-08-22T03:48:25.450Z,0.00
2022-08-22T03:49:25.401Z,0.00
2022-08-22T03:50:25.310Z,0.00
2022-08-22T03:51:25.284Z,0.00
2022-08-22T03:52:25.457Z,0.00
2022-08-22T03:53:25.269Z,0.00
2022-08-22T03:54:25.285Z,0.00
2022-08-22T03:55:25.259Z,0.00
2022-08-22T03:56:25.295Z,0.00
2022-08-22T03:57:25.321Z,0.00
2022-08-22T03:58:27.917Z,0.00
2022-08-22T03:59:25.258Z,0.00
2022-08-22T04:00:25.386Z,0.00
2022-08-22T04:01:25.207Z,0.00
2022-08-22T04:02:43.594Z,0.00
2022-08-22T04:03:25.333Z,0.00
2022-08-22T04:04:25.239Z,0.00
2022-08-22T04:05:25.365Z,0.00
2022-08-22T04:06:25.311Z,0.00
2022-08-22T04:07:31.699Z,0.00
2022-08-22T04:08:26.417Z,0.00
2022-08-22T04:09:25.321Z,0.00
2022-08-22T04:10:25.325Z,0.00
2022-08-22T04:11:25.156Z,0.00
2022-08-22T04:12:25.142Z,0.00
2022-08-22T04:13:25.329Z,0.00
2022-08-22T04:14:25.678Z,0.00
2022-08-22T04:15:25.567Z,0.00
2022-08-22T04:16:25.343Z,0.00
2022-08-22T04:17:25.245Z,0.00
2022-08-22T04:18:25.158Z,0.00
2022-08-22T04:19:25.124Z,0.00
2022-08-22T04:20:25.048Z,0.00
2022-08-22T04:21:25.190Z,0.00
2022-08-22T04:22:25.093Z,0.00
2022-08-22T04:23:24.947Z,0.00
2022-08-22T04:24:25.065Z,0.00
2022-08-22T04:25:24.945Z,0.00
2022-08-22T04:26:24.907Z,0.00
2022-08-22T04:27:24.947Z,0.00
2022-08-22T04:28:24.846Z,0.00
2022-08-22T04:29:24.977Z,0.00
2022-08-22T04:30:24.895Z,0.00
2022-08-22T04:31:24.891Z,5.62
2022-08-22T04:32:24.993Z,5.62
2022-08-22T04:33:24.857Z,5.62
2022-08-22T04:34:24.898Z,5.62
2022-08-22T04:35:24.850Z,5.62
2022-08-22T04:36:24.753Z,5.62
2022-08-22T04:37:24.849Z,5.62
2022-08-22T04:38:24.766Z,5.62
2022-08-22T04:39:24.708Z,5.62
2022-08-22T04:40:24.863Z,5.62
2022-08-22T04:41:24.753Z,5.62
2022-08-22T04:42:33.239Z,5.62
2022-08-22T04:43:24.679Z,11.25
2022-08-22T04:44:24.704Z,11.25
2022-08-22T04:45:24.755Z,11.25
2022-08-22T04:46:24.620Z,11.25
2022-08-22T04:47:24.751Z,11.25
2022-08-22T04:48:24.605Z,11.25
2022-08-22T04:49:24.671Z,11.25
2022-08-22T04:50:24.695Z,11.25
2022-08-22T04:51:24.611Z,11.25
2022-08-22T04:52:24.570Z,16.88
2022-08-22T04:53:24.600Z,16.88
2022-08-22T04:54:24.600Z,16.88
2022-08-22T04:55:24.594Z,16.88
2022-08-22T04:56:24.759Z,16.88
2022-08-22T04:57:24.612Z,16.88
2022-08-22T04:58:24.649Z,22.50
2022-08-22T04:59:24.620Z,22.50
2022-08-22T05:00:24.510Z,22.50
2022-08-22T05:01:24.628Z,22.50
2022-08-22T05:02:24.547Z,22.50
2022-08-22T05:03:24.589Z,28.12
2022-08-22T05:04:24.464Z,28.12
2022-08-22T05:05:24.653Z,28.12
2022-08-22T05:06:24.659Z,28.12
2022-08-22T05:07:24.465Z,28.12
2022-08-22T05:08:24.456Z,33.75
2022-08-22T05:09:24.592Z,33.75
2022-08-22T05:10:24.427Z,33.75
2022-08-22T05:11:24.448Z,33.75
2022-08-22T05:12:24.451Z,39.38
2022-08-22T05:13:24.558Z,39.38
2022-08-22T05:14:24.357Z,39.38
2022-08-22T05:15:24.358Z,39.38
2022-08-22T05:16:24.416Z,39.38
2022-08-22T05:17:24.333Z,39.38
2022-08-22T05:18:25.923Z,39.38
2022-08-22T05:19:31.149Z,39.38
2022-08-22T05:20:24.560Z,39.38
2022-08-22T05:21:24.314Z,39.38
2022-08-22T05:22:24.301Z,45.00
2022-08-22T05:23:24.179Z,45.00
2022-08-22T05:24:24.226Z,45.00
2022-08-22T05:25:24.195Z,50.62
2022-08-22T05:26:24.251Z,50.62
2022-08-22T05:27:24.222Z,50.62
2022-08-22T05:28:24.212Z,50.62
2022-08-22T05:29:24.126Z,50.62
2022-08-22T05:30:24.175Z,56.25
2022-08-22T05:31:24.252Z,56.25
2022-08-22T05:32:24.299Z,56.25
2022-08-22T05:33:24.196Z,61.88
2022-08-22T05:34:24.166Z,61.88
2022-08-22T05:35:24.148Z,61.88
2022-08-22T05:36:24.144Z,61.88
2022-08-22T05:37:24.112Z,67.50
2022-08-22T05:38:24.129Z,67.50
2022-08-22T05:39:25.390Z,67.50
2022-08-22T05:40:24.137Z,67.50
2022-08-22T05:41:24.082Z,73.12
2022-08-22T05:42:24.153Z,73.12
2022-08-22T05:43:24.039Z,73.12
2022-08-22T05:44:24.139Z,73.12
2022-08-22T05:45:24.090Z,78.75
2022-08-22T05:46:27.051Z,78.75
2022-08-22T05:47:23.973Z,78.75
2022-08-22T05:48:24.079Z,84.38
2022-08-22T05:49:23.972Z,84.38
2022-08-22T05:50:23.978Z,90.00
2022-08-22T05:51:23.954Z,90.00
2022-08-22T05:52:23.945Z,95.62
2022-08-22T05:53:24.050Z,95.62
2022-08-22T05:54:34.493Z,95.62
2022-08-22T05:55:23.999Z,95.62
2022-08-22T05:56:23.925Z,101.25
2022-08-22T05:57:23.856Z,101.25
2022-08-22T05:58:23.950Z,101.25
2022-08-22T05:59:23.882Z,101.25
2022-08-22T06:00:23.897Z,101.25
2022-08-22T06:01:23.870Z,106.88
2022-08-22T06:02:23.875Z,106.88
2022-08-22T06:03:23.879Z,112.50
2022-08-22T06:04:23.799Z,112.50
2022-08-22T06:05:23.821Z,112.50
2022-08-22T06:06:23.926Z,118.12
2022-08-22T06:07:23.867Z,118.12
2022-08-22T06:08:23.774Z,118.12
2022-08-22T06:09:23.765Z,123.75
2022-08-22T06:10:23.867Z,118.12
2022-08-22T06:11:23.726Z,123.75
2022-08-22T06:12:23.701Z,123.75
2022-08-22T06:13:24.704Z,129.38
2022-08-22T06:14:24.828Z,129.38
2022-08-22T06:15:23.667Z,129.38
2022-08-22T06:16:23.635Z,135.00
2022-08-22T06:17:23.723Z,135.00
2022-08-22T06:18:23.683Z,135.00
2022-08-22T06:19:23.763Z,135.00
2022-08-22T06:20:23.828Z,135.00
2022-08-22T06:21:23.683Z,135.00
2022-08-22T06:22:23.633Z,135.00
2022-08-22T06:23:23.562Z,135.00
2022-08-22T06:24:23.547Z,135.00
2022-08-22T06:25:23.523Z,135.00
2022-08-22T06:26:23.556Z,135.00
2022-08-22T06:27:23.578Z,135.00
2022-08-22T06:28:23.621Z,129.38
2022-08-22T06:29:23.441Z,112.50
2022-08-22T06:30:23.489Z,118.12
2022-08-22T06:31:23.410Z,118.12
2022-08-22T06:32:47.076Z,118.12
2022-08-22T06:33:23.413Z,118.12
2022-08-22T06:34:23.374Z,112.50
2022-08-22T06:35:23.389Z,123.75
2022-08-22T06:36:23.346Z,118.12
2022-08-22T06:37:23.361Z,106.88
2022-08-22T06:38:23.328Z,118.12
2022-08-22T06:39:23.392Z,118.12
2022-08-22T06:40:23.441Z,123.75
2022-08-22T06:41:23.300Z,135.00
2022-08-22T06:42:23.307Z,135.00
2022-08-22T06:43:23.310Z,123.75
2022-08-22T06:44:23.260Z,140.62
2022-08-22T06:45:23.280Z,140.62
2022-08-22T06:46:23.245Z,140.62
2022-08-22T06:47:23.245Z,140.62
2022-08-22T06:48:23.234Z,140.62
2022-08-22T06:49:23.215Z,146.25
2022-08-22T06:50:23.216Z,140.62
2022-08-22T06:51:23.224Z,135.00
2022-08-22T06:52:23.187Z,140.62
2022-08-22T06:53:23.169Z,140.62
2022-08-22T06:54:23.179Z,157.50
2022-08-22T06:55:23.150Z,135.00
2022-08-22T06:56:23.180Z,129.38
2022-08-22T06:57:23.138Z,123.75
2022-08-22T06:58:23.125Z,129.38
2022-08-22T06:59:23.116Z,140.62
2022-08-22T07:00:23.181Z,129.38
2022-08-22T07:01:23.208Z,129.38
2022-08-22T07:02:23.150Z,129.38
2022-08-22T07:03:23.076Z,135.00
2022-08-22T07:04:23.064Z,140.62
2022-08-22T07:05:23.039Z,174.38
2022-08-22T07:06:23.049Z,157.50
2022-08-22T07:07:23.019Z,146.25
2022-08-22T07:08:23.004Z,157.50
2022-08-22T07:09:23.004Z,140.62
2022-08-22T07:10:22.997Z,140.62
2022-08-22T07:11:22.993Z,140.62
2022-08-22T07:12:22.981Z,151.88
2022-08-22T07:13:22.956Z,129.38
2022-08-22T07:14:22.937Z,135.00
2022-08-22T07:15:22.979Z,135.00
2022-08-22T07:16:22.922Z,123.75
2022-08-22T07:17:22.971Z,123.75
2022-08-22T07:18:22.886Z,123.75
2022-08-22T07:19:22.907Z,123.75
2022-08-22T07:20:22.882Z,129.38
2022-08-22T07:21:23.390Z,129.38
2022-08-22T07:22:22.895Z,129.38
2022-08-22T07:23:22.839Z,135.00
2022-08-22T07:24:22.839Z,157.50
2022-08-22T07:25:22.818Z,163.12
2022-08-22T07:26:22.824Z,168.75
2022-08-22T07:27:22.801Z,163.12
2022-08-22T07:28:36.687Z,157.50
2022-08-22T07:29:23.150Z,151.88
2022-08-22T07:30:27.431Z,191.25
2022-08-22T07:31:22.764Z,157.50
2022-08-22T07:32:22.751Z,208.12
2022-08-22T07:33:26.633Z,213.75
2022-08-22T07:34:22.728Z,202.50
2022-08-22T07:35:22.700Z,213.75
2022-08-22T07:36:23.288Z,208.12
2022-08-22T07:37:22.678Z,196.88
2022-08-22T07:38:22.684Z,174.38
2022-08-22T07:39:22.687Z,157.50
2022-08-22T07:40:22.778Z,157.50
2022-08-22T07:41:22.640Z,151.88
2022-08-22T07:42:22.629Z,135.00
2022-08-22T07:43:22.650Z,135.00
2022-08-22T07:44:22.670Z,123.75
2022-08-22T07:45:22.584Z,123.75
2022-08-22T07:46:22.574Z,123.75
2022-08-22T07:47:26.345Z,123.75
2022-08-22T07:48:26.029Z,123.75
2022-08-22T07:49:22.533Z,123.75
2022-08-22T07:50:22.556Z,123.75
2022-08-22T07:51:22.511Z,123.75
2022-08-22T07:52:22.514Z,123.75
2022-08-22T07:53:22.490Z,123.75
2022-08-22T07:54:22.497Z,123.75
2022-08-22T07:55:22.477Z,123.75
2022-08-22T07:56:22.466Z,123.75
2022-08-22T07:57:22.444Z,123.75
2022-08-22T07:58:22.433Z,123.75
2022-08-22T07:59:22.448Z,123.75
2022-08-22T08:00:22.421Z,129.38
2022-08-22T08:01:22.474Z,129.38
2022-08-22T08:02:22.399Z,129.38
2022-08-22T08:03:22.403Z,129.38
2022-08-22T08:04:22.412Z,135.00
2022-08-22T08:05:22.416Z,135.00
2022-08-22T08:06:22.358Z,135.00
2022-08-22T08:07:22.384Z,135.00
2022-08-22T08:08:22.360Z,135.00
2022-08-22T08:09:22.360Z,135.00
2022-08-22T08:10:22.336Z,135.00
2022-08-22T08:11:22.286Z,135.00
2022-08-22T08:12:22.279Z,140.62
2022-08-22T08:13:22.271Z,140.62
2022-08-22T08:14:22.318Z,140.62
2022-08-22T08:15:22.275Z,146.25
2022-08-22T08:16:22.239Z,146.25
2022-08-22T08:17:22.260Z,146.25
2022-08-22T08:18:22.214Z,151.88
2022-08-22T08:19:22.272Z,151.88
2022-08-22T08:20:22.191Z,151.88
2022-08-22T08:21:22.191Z,157.50
2022-08-22T08:22:22.172Z,157.50
2022-08-22T08:23:23.612Z,157.50
2022-08-22T08:24:22.195Z,151.88
2022-08-22T08:25:22.158Z,151.88
2022-08-22T08:26:22.147Z,157.50
2022-08-22T08:27:22.141Z,157.50
2022-08-22T08:28:22.128Z,163.12
2022-08-22T08:29:22.137Z,168.75
2022-08-22T08:30:22.095Z,174.38
2022-08-22T08:31:22.076Z,174.38
2022-08-22T08:32:22.068Z,196.88
2022-08-22T08:33:25.937Z,208.12
2022-08-22T08:34:22.060Z,236.25
2022-08-22T08:35:22.062Z,225.00
2022-08-22T08:36:22.012Z,236.25
2022-08-22T08:37:22.005Z,230.62
2022-08-22T08:38:21.997Z,264.38
2022-08-22T08:39:22.017Z,241.88
2022-08-22T08:40:22.004Z,230.62
2022-08-22T08:41:22.736Z,219.38
2022-08-22T08:42:21.969Z,225.00
2022-08-22T08:43:21.972Z,208.12
2022-08-22T08:44:21.966Z,230.62
2022-08-22T08:45:21.943Z,236.25
2022-08-22T08:46:21.942Z,230.62
2022-08-22T08:47:21.927Z,236.25
2022-08-22T08:48:21.923Z,275.62
2022-08-22T08:49:23.972Z,264.38
2022-08-22T08:50:21.866Z,241.88
2022-08-22T08:51:23.369Z,241.88
2022-08-22T08:52:21.839Z,241.88
2022-08-22T08:53:21.904Z,230.62
2022-08-22T08:54:21.844Z,230.62
2022-08-22T08:55:22.846Z,241.88
2022-08-22T08:56:21.799Z,230.62
2022-08-22T08:57:21.793Z,241.88
2022-08-22T08:58:21.773Z,241.88
2022-08-22T08:59:21.804Z,247.50
2022-08-22T09:00:21.745Z,298.12
2022-08-22T09:01:21.828Z,258.75
2022-08-22T09:02:23.714Z,241.88
2022-08-22T09:40:15.327Z,241.88
2022-08-22T09:40:30.205Z,230.62
2022-08-22T09:41:30.197Z,236.25
2022-08-22T09:42:30.158Z,236.25
2022-08-22T09:43:30.162Z,236.25
2022-08-22T09:44:30.196Z,225.00
2022-08-22T09:45:30.130Z,225.00
2022-08-22T09:46:36.622Z,241.88
2022-08-22T09:47:32.631Z,219.38
2022-08-22T09:48:30.099Z,219.38
2022-08-22T09:49:30.106Z,219.38
2022-08-22T09:50:30.094Z,219.38
2022-08-22T09:51:32.349Z,241.88
2022-08-22T09:52:34.047Z,230.62
2022-08-22T09:53:30.076Z,230.62
2022-08-22T09:54:31.716Z,258.75
2022-08-22T09:55:35.157Z,230.62
2022-08-22T09:56:30.019Z,241.88
2022-08-22T09:57:30.109Z,219.38
2022-08-22T09:58:29.996Z,213.75
2022-08-22T09:59:30.019Z,208.12
2022-08-22T10:00:29.980Z,202.50
2022-08-22T10:01:32.862Z,202.50
2022-08-22T10:02:30.078Z,196.88
2022-08-22T10:03:30.443Z,196.88
2022-08-22T10:04:29.975Z,202.50
2022-08-22T10:05:40.270Z,208.12
2022-08-22T10:06:29.952Z,208.12
2022-08-22T10:07:29.900Z,213.75
2022-08-22T10:08:29.893Z,202.50
2022-08-22T10:09:31.346Z,202.50
2022-08-22T10:10:29.851Z,202.50
2022-08-22T10:11:29.842Z,202.50
2022-08-22T10:12:35.134Z,208.12
2022-08-22T10:13:29.863Z,219.38
2022-08-22T10:14:29.855Z,241.88
2022-08-22T10:15:29.802Z,298.12
2022-08-22T10:16:29.819Z,281.25
2022-08-22T10:17:29.786Z,264.38
2022-08-22T10:18:29.776Z,253.12
2022-08-22T10:19:29.787Z,258.75
2022-08-22T10:20:29.752Z,264.38
2022-08-22T10:21:29.765Z,247.50
2022-08-22T10:22:30.958Z,236.25
2022-08-22T10:23:29.729Z,236.25
2022-08-22T10:24:29.754Z,225.00
2022-08-22T10:25:29.731Z,219.38
2022-08-22T10:26:29.712Z,225.00
2022-08-22T10:27:29.685Z,225.00
2022-08-22T10:28:29.693Z,247.50
2022-08-22T10:29:29.674Z,241.88
2022-08-22T10:30:29.697Z,230.62
2022-08-22T10:31:29.659Z,253.12
2022-08-22T10:32:29.630Z,225.00
2022-08-22T10:33:29.647Z,208.12
2022-08-22T10:34:29.620Z,213.75
2022-08-22T10:35:29.600Z,236.25
2022-08-22T10:36:29.589Z,258.75
2022-08-22T10:37:29.580Z,258.75
2022-08-22T10:38:29.557Z,270.00
2022-08-22T10:39:29.583Z,258.75
2022-08-22T10:40:29.543Z,275.62
2022-08-22T10:41:29.539Z,281.25
2022-08-22T10:42:35.260Z,286.88
2022-08-22T10:43:29.511Z,286.88
2022-08-22T10:44:29.532Z,298.12
2022-08-22T10:45:35.632Z,309.38
2022-08-22T10:46:29.473Z,298.12
2022-08-22T10:47:29.463Z,303.75
2022-08-22T10:48:29.451Z,309.38
2022-08-22T10:49:29.456Z,303.75
2022-08-22T10:50:31.208Z,303.75
2022-08-22T10:51:29.412Z,309.38
2022-08-22T10:52:29.420Z,315.00
2022-08-22T10:53:29.793Z,315.00
2022-08-22T10:54:29.421Z,286.88
2022-08-22T10:55:29.376Z,275.62
2022-08-22T10:56:29.383Z,281.25
2022-08-22T10:57:29.354Z,315.00
2022-08-22T10:58:29.333Z,315.00
2022-08-22T10:59:29.349Z,315.00
2022-08-22T11:00:29.328Z,281.25
2022-08-22T11:01:37.697Z,298.12
2022-08-22T11:02:29.317Z,309.38
2022-08-22T11:03:29.283Z,303.75
2022-08-22T11:04:29.293Z,303.75
2022-08-22T11:05:29.258Z,303.75
2022-08-22T11:06:29.262Z,298.12
2022-08-22T11:07:29.257Z,298.12
2022-08-22T11:08:29.221Z,292.50
2022-08-22T11:09:32.143Z,298.12
2022-08-22T11:10:29.212Z,286.88
2022-08-22T11:11:32.841Z,281.25
2022-08-22T11:12:34.670Z,286.88
2022-08-22T11:13:29.272Z,286.88
2022-08-22T11:14:29.179Z,286.88
2022-08-22T11:15:35.241Z,286.88
2022-08-22T11:16:29.150Z,292.50
2022-08-22T11:17:32.310Z,286.88
2022-08-22T11:18:30.526Z,286.88
2022-08-22T11:19:29.118Z,286.88
2022-08-22T11:20:29.102Z,286.88
2022-08-22T11:21:29.098Z,286.88
2022-08-22T11:22:29.075Z,286.88
2022-08-22T11:23:29.062Z,281.25
2022-08-22T11:24:35.226Z,286.88
2022-08-22T11:25:36.247Z,286.88
2022-08-22T11:26:29.290Z,286.88
2022-08-22T11:27:38.087Z,281.25
2022-08-22T11:28:29.016Z,281.25
2022-08-22T11:29:29.005Z,281.25
2022-08-22T11:30:28.974Z,281.25
2022-08-22T11:31:31.811Z,281.25
2022-08-22T11:32:28.969Z,281.25
2022-08-22T11:33:33.888Z,281.25
2022-08-22T11:34:28.961Z,275.62
2022-08-22T11:35:28.918Z,275.62
2022-08-22T11:36:30.577Z,270.00
2022-08-22T11:37:34.483Z,270.00
2022-08-22T11:38:32.895Z,270.00
2022-08-22T11:39:28.895Z,275.62
2022-08-22T11:40:28.925Z,275.62
2022-08-22T11:41:28.868Z,275.62
2022-08-22T11:42:29.495Z,275.62
2022-08-22T11:43:28.837Z,270.00
2022-08-22T11:44:28.847Z,275.62
2022-08-22T11:45:28.814Z,275.62
2022-08-22T11:46:28.799Z,270.00
2022-08-22T11:47:29.034Z,275.62
2022-08-22T11:48:28.794Z,275.62
2022-08-22T11:49:32.711Z,275.62
2022-08-22T11:50:28.813Z,281.25
2022-08-22T11:51:28.741Z,286.88
2022-08-22T11:52:28.737Z,298.12
2022-08-22T11:53:28.763Z,309.38
2022-08-22T11:54:31.100Z,315.00
2022-08-22T11:55:33.020Z,309.38
2022-08-22T11:56:28.702Z,292.50
2022-08-22T11:57:28.697Z,208.12
2022-08-22T11:58:29.356Z,225.00
2022-08-22T11:59:28.666Z,281.25
2022-08-22T12:00:28.638Z,196.88
2022-08-22T12:01:34.392Z,202.50
2022-08-22T12:02:28.703Z,213.75
2022-08-22T12:03:28.620Z,270.00
2022-08-22T12:04:28.626Z,270.00
2022-08-22T12:05:28.579Z,270.00
2022-08-22T12:06:28.591Z,258.75
2022-08-22T12:07:28.576Z,281.25
2022-08-22T12:08:28.552Z,315.00
2022-08-22T12:09:29.683Z,331.88
2022-08-22T12:10:28.537Z,331.88
2022-08-22T12:11:28.508Z,365.62
2022-08-22T12:12:28.509Z,348.75
2022-08-22T12:13:34.183Z,343.12
2022-08-22T12:14:28.518Z,298.12
2022-08-22T12:15:28.551Z,241.88
2022-08-22T12:16:28.465Z,202.50
2022-08-22T12:17:55.559Z,191.25
2022-08-22T12:18:28.442Z,196.88
2022-08-22T12:19:28.449Z,196.88
2022-08-22T12:20:28.417Z,196.88
2022-08-22T12:21:28.400Z,191.25
2022-08-22T12:22:28.953Z,196.88
2022-08-22T12:23:38.010Z,202.50
2022-08-22T12:24:28.396Z,225.00
2022-08-22T12:25:28.374Z,275.62
2022-08-22T12:26:28.372Z,253.12
2022-08-22T12:27:29.294Z,247.50
2022-08-22T12:28:28.329Z,275.62
2022-08-22T12:29:33.944Z,354.38
2022-08-22T12:30:28.308Z,303.75
2022-08-22T12:31:28.301Z,253.12
2022-08-22T12:32:28.296Z,270.00
2022-08-22T12:33:28.277Z,253.12
2022-08-22T12:34:28.276Z,281.25
2022-08-22T12:35:30.355Z,281.25
2022-08-22T12:36:28.256Z,230.62
2022-08-22T12:37:28.232Z,213.75
2022-08-22T12:38:30.677Z,219.38
2022-08-22T12:39:28.237Z,230.62
2022-08-22T12:40:28.255Z,258.75
2022-08-22T12:41:35.068Z,225.00
2022-08-22T12:42:28.205Z,258.75
2022-08-22T12:43:28.190Z,253.12
2022-08-22T12:44:28.176Z,225.00
2022-08-22T12:45:28.148Z,236.25
2022-08-22T12:46:28.239Z,253.12
2022-08-22T12:47:28.145Z,320.62
2022-08-22T12:48:28.103Z,382.50
2022-08-22T12:49:28.154Z,382.50
2022-08-22T12:50:28.083Z,376.88
2022-08-22T12:51:29.474Z,365.62
2022-08-22T12:52:28.058Z,360.00
2022-08-22T12:53:28.335Z,360.00
2022-08-22T12:54:28.058Z,354.38
2022-08-22T12:55:28.069Z,354.38
2022-08-22T12:56:28.036Z,360.00
2022-08-22T12:57:28.012Z,376.88
2022-08-22T12:58:33.072Z,264.38
2022-08-22T12:59:28.038Z,253.12
2022-08-22T13:00:29.441Z,281.25
2022-08-22T13:01:34.289Z,315.00
2022-08-22T13:02:27.965Z,315.00
2022-08-22T13:03:27.940Z,309.38
2022-08-22T13:04:33.332Z,219.38
2022-08-22T13:05:27.951Z,191.25
2022-08-22T13:06:27.918Z,185.62
2022-08-22T13:07:27.905Z,174.38
2022-08-22T13:08:27.916Z,168.75
2022-08-22T13:09:28.887Z,168.75
2022-08-22T13:10:27.862Z,163.12
2022-08-22T13:11:27.875Z,168.75
2022-08-22T13:12:27.859Z,174.38
2022-08-22T13:13:36.482Z,180.00
2022-08-22T13:14:27.869Z,180.00
2022-08-22T13:15:27.824Z,185.62
2022-08-22T13:16:27.808Z,180.00
2022-08-22T13:17:27.807Z,180.00
2022-08-22T13:18:30.446Z,180.00
2022-08-22T13:19:27.787Z,180.00
2022-08-22T13:20:27.774Z,180.00
2022-08-22T13:21:28.786Z,180.00
2022-08-22T13:22:27.747Z,185.62
2022-08-22T13:23:27.779Z,191.25
2022-08-22T13:24:38.918Z,191.25